createdAt,value
2017-07-09T00:00:41.593Z,0
2017-07-09T00:01:41.937Z,0
2017-07-09T00:02:42.298Z,0
2017-07-09T00:03:42.332Z,0
2017-07-09T00:04:42.356Z,0
2017-07-09T00:05:41.740Z,0
2017-07-09T00:06:42.103Z,0
2017-07-09T00:07:42.439Z,0
2017-07-09T00:08:42.472Z,0
2017-07-09T00:09:42.190Z,0
2017-07-09T00:10:42.218Z,0
2017-07-09T00:11:42.262Z,0
2017-07-09T00:12:42.598Z,0
2017-07-09T00:13:41.671Z,0
2017-07-09T00:14:42.648Z,0
2017-07-09T00:15:42.380Z,0
2017-07-09T00:16:42.722Z,0
2017-07-09T00:17:42.435Z,0
2017-07-09T00:18:42.475Z,0
2017-07-09T00:19:42.748Z,0
2017-07-09T00:20:42.857Z,0
2017-07-09T00:21:42.565Z,0
2017-07-09T00:22:42.603Z,0
2017-07-09T00:23:42.623Z,0
2017-07-09T00:24:43.224Z,0
2017-07-09T00:25:43.005Z,0
2017-07-09T00:26:42.715Z,0
2017-07-09T00:27:42.751Z,0
2017-07-09T00:28:42.783Z,0
2017-07-09T00:29:43.068Z,0
2017-07-09T00:30:43.168Z,0
2017-07-09T00:31:42.878Z,0
2017-07-09T00:32:43.232Z,0
2017-07-09T00:33:43.271Z,0
2017-07-09T00:34:43.225Z,0
2017-07-09T00:35:43.003Z,0
2017-07-09T00:36:42.706Z,0
2017-07-09T00:37:43.399Z,0
2017-07-09T00:38:42.457Z,0
2017-07-09T00:39:43.755Z,0
2017-07-09T00:40:43.482Z,0
2017-07-09T00:41:43.226Z,0
2017-07-09T00:42:42.904Z,0
2017-07-09T00:43:42.928Z,0
2017-07-09T00:44:43.856Z,0
2017-07-09T00:45:42.985Z,0
2017-07-09T00:46:43.664Z,0
2017-07-09T00:47:43.694Z,0
2017-07-09T00:48:43.089Z,0
2017-07-09T00:49:43.744Z,0
2017-07-09T00:50:43.462Z,0
2017-07-09T00:51:43.831Z,0
2017-07-09T00:52:43.532Z,0
2017-07-09T00:53:43.885Z,0
2017-07-09T00:54:43.529Z,0
2017-07-09T00:55:43.306Z,0
2017-07-09T00:56:43.339Z,0
2017-07-09T00:57:43.681Z,0
2017-07-09T00:58:43.405Z,0
2017-07-09T00:59:44.049Z,0
2017-07-09T01:00:43.461Z,0
2017-07-09T01:01:43.810Z,0
2017-07-09T01:02:43.845Z,0
2017-07-09T01:03:43.557Z,0
2017-07-09T01:04:44.192Z,0
2017-07-09T01:05:43.621Z,0
2017-07-09T01:06:44.286Z,0
2017-07-09T01:07:43.680Z,0
2017-07-09T01:08:43.714Z,0
2017-07-09T01:09:44.306Z,0
2017-07-09T01:10:44.099Z,0
2017-07-09T01:11:43.795Z,0
2017-07-09T01:12:44.468Z,0
2017-07-09T01:13:43.857Z,0
2017-07-09T01:14:44.462Z,0
2017-07-09T01:15:43.607Z,0
2017-07-09T01:16:44.600Z,0
2017-07-09T01:17:44.305Z,0
2017-07-09T01:18:44.657Z,0
2017-07-09T01:19:44.611Z,0
2017-07-09T01:20:44.715Z,0
2017-07-09T01:21:44.096Z,0
2017-07-09T01:22:44.449Z,0
2017-07-09T01:23:44.477Z,0
2017-07-09T01:24:44.823Z,0
2017-07-09T01:25:44.872Z,0
2017-07-09T01:26:44.268Z,0
2017-07-09T01:27:44.616Z,0
2017-07-09T01:28:44.646Z,0
2017-07-09T01:29:44.977Z,0
2017-07-09T01:30:44.388Z,0
2017-07-09T01:31:44.732Z,0
2017-07-09T01:32:44.773Z,0
2017-07-09T01:33:44.853Z,0
2017-07-09T01:34:45.074Z,0
2017-07-09T01:35:44.539Z,0
2017-07-09T01:36:44.893Z,0
2017-07-09T01:37:45.237Z,0
2017-07-09T01:38:44.948Z,0
2017-07-09T01:39:45.598Z,0
2017-07-09T01:40:44.685Z,0
2017-07-09T01:41:44.728Z,0
2017-07-09T01:42:45.398Z,0
2017-07-09T01:43:44.470Z,0
2017-07-09T01:44:44.817Z,0
2017-07-09T01:45:44.856Z,0
2017-07-09T01:46:45.513Z,0
2017-07-09T01:47:45.221Z,0
2017-07-09T01:48:45.569Z,0
2017-07-09T01:49:45.293Z,0
2017-07-09T01:50:45.012Z,0
2017-07-09T01:51:45.673Z,0
2017-07-09T01:52:45.385Z,0
2017-07-09T01:53:45.411Z,0
2017-07-09T01:54:45.451Z,0
2017-07-09T01:55:44.841Z,0
2017-07-09T01:56:45.508Z,0
2017-07-09T01:57:45.541Z,0
2017-07-09T01:58:45.895Z,0
2017-07-09T01:59:45.608Z,0
2017-07-09T02:00:45.628Z,0
2017-07-09T02:01:45.985Z,0
2017-07-09T02:02:46.028Z,0
2017-07-09T02:03:45.407Z,0
2017-07-09T02:04:45.768Z,0
2017-07-09T02:05:46.041Z,0
2017-07-09T02:06:45.817Z,0
2017-07-09T02:07:45.527Z,0
2017-07-09T02:08:46.213Z,0
2017-07-09T02:09:45.588Z,0
2017-07-09T02:10:46.245Z,0
2017-07-09T02:11:45.666Z,0
2017-07-09T02:12:46.007Z,0
2017-07-09T02:13:46.039Z,0
2017-07-09T02:14:46.384Z,0
2017-07-09T02:15:46.397Z,0
2017-07-09T02:16:46.126Z,0
2017-07-09T02:17:46.153Z,0
2017-07-09T02:18:46.188Z,0
2017-07-09T02:19:45.895Z,0
2017-07-09T02:20:46.227Z,0
2017-07-09T02:21:46.598Z,0
2017-07-09T02:22:46.622Z,0
2017-07-09T02:23:46.652Z,0
2017-07-09T02:24:46.360Z,0
2017-07-09T02:25:46.973Z,0
2017-07-09T02:26:46.747Z,0
2017-07-09T02:27:46.465Z,0
2017-07-09T02:28:46.493Z,0
2017-07-09T02:29:46.533Z,0
2017-07-09T02:30:47.125Z,0
2017-07-09T02:31:46.591Z,0
2017-07-09T02:32:45.975Z,0
2017-07-09T02:33:46.672Z,0
2017-07-09T02:34:46.361Z,0
2017-07-09T02:35:46.998Z,0
2017-07-09T02:36:46.746Z,0
2017-07-09T02:37:46.759Z,0
2017-07-09T02:38:46.484Z,0
2017-07-09T02:39:46.832Z,0
2017-07-09T02:40:46.843Z,0
2017-07-09T02:41:46.571Z,0
2017-07-09T02:42:46.612Z,0
2017-07-09T02:43:47.270Z,0
2017-07-09T02:44:46.989Z,0
2017-07-09T02:45:46.625Z,0
2017-07-09T02:46:47.051Z,0
2017-07-09T02:47:47.071Z,0
2017-07-09T02:48:47.113Z,0
2017-07-09T02:49:47.454Z,0
2017-07-09T02:50:47.160Z,0
2017-07-09T02:51:47.523Z,0
2017-07-09T02:52:47.311Z,0
2017-07-09T02:53:47.261Z,0
2017-07-09T02:54:46.978Z,0
2017-07-09T02:55:47.573Z,0
2017-07-09T02:56:47.359Z,0
2017-07-09T02:57:47.706Z,0
2017-07-09T02:58:47.413Z,0
2017-07-09T02:59:47.446Z,0
2017-07-09T03:00:48.030Z,0
2017-07-09T03:01:47.512Z,0
2017-07-09T03:02:47.907Z,0
2017-07-09T03:03:47.570Z,0
2017-07-09T03:04:47.600Z,0
2017-07-09T03:05:48.238Z,0
2017-07-09T03:06:47.975Z,0
2017-07-09T03:07:48.004Z,0
2017-07-09T03:08:47.087Z,0
2017-07-09T03:09:47.754Z,0
2017-07-09T03:10:47.782Z,4
2017-07-09T03:11:47.816Z,4
2017-07-09T03:12:47.856Z,4
2017-07-09T03:13:47.873Z,4
2017-07-09T03:14:47.590Z,0
2017-07-09T03:15:47.875Z,4
2017-07-09T03:16:47.956Z,4
2017-07-09T03:17:47.358Z,8
2017-07-09T03:18:48.351Z,4
2017-07-09T03:19:48.377Z,4
2017-07-09T03:20:48.384Z,8
2017-07-09T03:21:47.484Z,8
2017-07-09T03:22:48.537Z,8
2017-07-09T03:23:48.172Z,12
2017-07-09T03:24:48.538Z,8
2017-07-09T03:25:48.251Z,12
2017-07-09T03:26:48.297Z,16
2017-07-09T03:27:48.635Z,20
2017-07-09T03:28:48.334Z,20
2017-07-09T03:29:48.695Z,20
2017-07-09T03:30:48.400Z,28
2017-07-09T03:31:48.437Z,28
2017-07-09T03:32:48.781Z,32
2017-07-09T03:33:48.486Z,32
2017-07-09T03:34:48.523Z,36
2017-07-09T03:35:48.556Z,36
2017-07-09T03:36:48.269Z,40
2017-07-09T03:37:48.933Z,44
2017-07-09T03:38:48.319Z,48
2017-07-09T03:39:48.679Z,48
2017-07-09T03:40:48.699Z,52
2017-07-09T03:41:49.052Z,52
2017-07-09T03:42:48.445Z,60
2017-07-09T03:43:48.166Z,64
2017-07-09T03:44:49.155Z,68
2017-07-09T03:45:48.860Z,76
2017-07-09T03:46:49.197Z,80
2017-07-09T03:47:48.598Z,100
2017-07-09T03:48:48.954Z,116
2017-07-09T03:49:48.984Z,140
2017-07-09T03:50:49.004Z,168
2017-07-09T03:51:49.041Z,196
2017-07-09T03:52:49.402Z,236
2017-07-09T03:53:49.423Z,272
2017-07-09T03:54:48.821Z,300
2017-07-09T03:55:49.165Z,312
2017-07-09T03:56:49.202Z,312
2017-07-09T03:57:49.224Z,308
2017-07-09T03:58:49.258Z,296
2017-07-09T03:59:48.968Z,288
2017-07-09T04:00:49.325Z,276
2017-07-09T04:01:49.354Z,264
2017-07-09T04:02:49.383Z,260
2017-07-09T04:03:49.408Z,252
2017-07-09T04:04:49.440Z,248
2017-07-09T04:05:49.789Z,252
2017-07-09T04:06:49.825Z,252
2017-07-09T04:07:49.543Z,264
2017-07-09T04:08:49.564Z,292
2017-07-09T04:09:49.597Z,316
2017-07-09T04:10:49.957Z,320
2017-07-09T04:11:49.010Z,328
2017-07-09T04:12:49.367Z,320
2017-07-09T04:13:49.717Z,304
2017-07-09T04:14:49.435Z,296
2017-07-09T04:15:49.785Z,296
2017-07-09T04:16:50.115Z,292
2017-07-09T04:17:50.159Z,284
2017-07-09T04:18:49.548Z,276
2017-07-09T04:19:49.902Z,268
2017-07-09T04:20:49.611Z,272
2017-07-09T04:21:50.574Z,292
2017-07-09T04:22:49.993Z,316
2017-07-09T04:23:49.377Z,336
2017-07-09T04:24:50.065Z,328
2017-07-09T04:25:50.074Z,308
2017-07-09T04:26:50.691Z,304
2017-07-09T04:27:49.508Z,300
2017-07-09T04:28:50.177Z,288
2017-07-09T04:29:50.198Z,292
2017-07-09T04:30:49.917Z,292
2017-07-09T04:31:50.567Z,284
2017-07-09T04:32:50.299Z,284
2017-07-09T04:33:49.687Z,288
2017-07-09T04:34:50.357Z,292
2017-07-09T04:35:50.385Z,288
2017-07-09T04:36:50.080Z,284
2017-07-09T04:37:50.124Z,296
2017-07-09T04:38:50.802Z,312
2017-07-09T04:39:50.517Z,336
2017-07-09T04:40:50.226Z,340
2017-07-09T04:41:50.832Z,308
2017-07-09T04:42:50.609Z,276
2017-07-09T04:43:50.317Z,280
2017-07-09T04:44:50.661Z,308
2017-07-09T04:45:50.378Z,324
2017-07-09T04:46:51.300Z,336
2017-07-09T04:47:51.081Z,368
2017-07-09T04:48:51.113Z,408
2017-07-09T04:49:50.499Z,412
2017-07-09T04:50:51.168Z,384
2017-07-09T04:51:51.487Z,348
2017-07-09T04:52:50.592Z,328
2017-07-09T04:53:50.951Z,328
2017-07-09T04:54:50.962Z,328
2017-07-09T04:55:51.384Z,308
2017-07-09T04:56:51.283Z,276
2017-07-09T04:57:51.057Z,260
2017-07-09T04:58:51.097Z,252
2017-07-09T04:59:51.134Z,264
2017-07-09T05:00:51.163Z,276
2017-07-09T05:01:51.479Z,296
2017-07-09T05:02:50.893Z,320
2017-07-09T05:03:51.569Z,340
2017-07-09T05:04:51.595Z,372
2017-07-09T05:05:50.980Z,412
2017-07-09T05:06:51.592Z,472
2017-07-09T05:07:51.693Z,528
2017-07-09T05:08:51.397Z,560
2017-07-09T05:09:51.102Z,564
2017-07-09T05:10:51.784Z,564
2017-07-09T05:11:51.428Z,540
2017-07-09T05:12:51.841Z,512
2017-07-09T05:13:51.221Z,468
2017-07-09T05:14:51.579Z,420
2017-07-09T05:15:51.950Z,400
2017-07-09T05:16:51.944Z,392
2017-07-09T05:17:51.349Z,380
2017-07-09T05:18:51.710Z,412
2017-07-09T05:19:51.735Z,444
2017-07-09T05:20:51.447Z,468
2017-07-09T05:21:51.731Z,496
2017-07-09T05:22:51.817Z,536
2017-07-09T05:23:51.857Z,568
2017-07-09T05:24:51.247Z,560
2017-07-09T05:25:52.239Z,568
2017-07-09T05:26:51.876Z,640
2017-07-09T05:27:51.981Z,712
2017-07-09T05:28:52.006Z,768
2017-07-09T05:29:52.051Z,804
2017-07-09T05:30:52.073Z,824
2017-07-09T05:31:52.412Z,828
2017-07-09T05:32:51.809Z,828
2017-07-09T05:33:51.521Z,856
2017-07-09T05:34:52.191Z,868
2017-07-09T05:35:52.540Z,868
2017-07-09T05:36:52.254Z,872
2017-07-09T05:37:51.646Z,844
2017-07-09T05:38:52.639Z,784
2017-07-09T05:39:51.708Z,740
2017-07-09T05:40:52.372Z,744
2017-07-09T05:41:52.085Z,752
2017-07-09T05:42:52.117Z,720
2017-07-09T05:43:52.142Z,676
2017-07-09T05:44:52.497Z,648
2017-07-09T05:45:52.836Z,652
2017-07-09T05:46:52.241Z,672
2017-07-09T05:47:52.273Z,700
2017-07-09T05:48:52.295Z,760
2017-07-09T05:49:52.642Z,816
2017-07-09T05:50:52.359Z,832
2017-07-09T05:51:52.701Z,828
2017-07-09T05:52:52.422Z,780
2017-07-09T05:53:52.755Z,772
2017-07-09T05:54:52.488Z,760
2017-07-09T05:55:52.828Z,736
2017-07-09T05:56:52.864Z,728
2017-07-09T05:57:53.146Z,692
2017-07-09T05:58:52.287Z,736
2017-07-09T05:59:52.968Z,816
2017-07-09T06:00:52.668Z,936
2017-07-09T06:01:53.025Z,1032
2017-07-09T06:02:52.970Z,1072
2017-07-09T06:03:52.434Z,1172
2017-07-09T06:04:52.791Z,1252
2017-07-09T06:05:53.141Z,1336
2017-07-09T06:06:53.173Z,1400
2017-07-09T06:07:53.465Z,1448
2017-07-09T06:08:52.927Z,1496
2017-07-09T06:09:52.940Z,1540
2017-07-09T06:10:53.293Z,1576
2017-07-09T06:11:53.321Z,1620
2017-07-09T06:12:53.918Z,1660
2017-07-09T06:13:53.383Z,1700
2017-07-09T06:14:53.416Z,1720
2017-07-09T06:15:53.451Z,1672
2017-07-09T06:16:53.159Z,1612
2017-07-09T06:17:53.435Z,1504
2017-07-09T06:18:53.532Z,1292
2017-07-09T06:19:53.560Z,1052
2017-07-09T06:20:53.585Z,860
2017-07-09T06:21:53.629Z,768
2017-07-09T06:22:53.639Z,744
2017-07-09T06:23:53.696Z,740
2017-07-09T06:24:53.723Z,776
2017-07-09T06:25:53.765Z,828
2017-07-09T06:26:53.466Z,940
2017-07-09T06:27:54.379Z,944
2017-07-09T06:28:54.159Z,940
2017-07-09T06:29:53.873Z,1004
2017-07-09T06:30:54.225Z,1044
2017-07-09T06:31:53.614Z,1080
2017-07-09T06:32:54.527Z,1120
2017-07-09T06:33:54.303Z,1164
2017-07-09T06:34:53.697Z,1204
2017-07-09T06:35:53.415Z,1248
2017-07-09T06:36:54.090Z,1296
2017-07-09T06:37:54.687Z,1372
2017-07-09T06:38:54.483Z,1464
2017-07-09T06:39:53.853Z,1512
2017-07-09T06:40:54.206Z,1572
2017-07-09T06:41:53.919Z,1620
2017-07-09T06:42:53.884Z,1656
2017-07-09T06:43:54.621Z,1668
2017-07-09T06:44:54.649Z,1660
2017-07-09T06:45:54.042Z,1632
2017-07-09T06:46:54.387Z,1596
2017-07-09T06:47:54.675Z,1552
2017-07-09T06:48:54.454Z,1500
2017-07-09T06:49:54.484Z,1464
2017-07-09T06:50:54.812Z,1408
2017-07-09T06:51:54.227Z,1372
2017-07-09T06:52:54.828Z,1332
2017-07-09T06:53:54.925Z,1272
2017-07-09T06:54:54.625Z,1216
2017-07-09T06:55:54.658Z,1132
2017-07-09T06:56:54.365Z,1132
2017-07-09T06:57:54.706Z,1104
2017-07-09T06:58:55.081Z,1060
2017-07-09T06:59:54.776Z,1028
2017-07-09T07:00:54.822Z,996
2017-07-09T07:01:54.846Z,976
2017-07-09T07:02:55.117Z,972
2017-07-09T07:03:54.594Z,976
2017-07-09T07:04:54.617Z,992
2017-07-09T07:05:54.641Z,1008
2017-07-09T07:06:55.075Z,1032
2017-07-09T07:07:55.587Z,1060
2017-07-09T07:08:54.740Z,1088
2017-07-09T07:09:55.409Z,1112
2017-07-09T07:10:55.142Z,1148
2017-07-09T07:11:55.147Z,1196
2017-07-09T07:12:55.192Z,1244
2017-07-09T07:13:55.212Z,1284
2017-07-09T07:14:55.250Z,1320
2017-07-09T07:15:54.963Z,1364
2017-07-09T07:16:55.300Z,1416
2017-07-09T07:17:55.340Z,1468
2017-07-09T07:18:55.699Z,1520
2017-07-09T07:19:55.411Z,1556
2017-07-09T07:20:55.439Z,1600
2017-07-09T07:21:55.143Z,1648
2017-07-09T07:22:55.502Z,1688
2017-07-09T07:23:55.520Z,1708
2017-07-09T07:24:55.242Z,1700
2017-07-09T07:25:55.578Z,1680
2017-07-09T07:26:55.919Z,1632
2017-07-09T07:27:55.337Z,1592
2017-07-09T07:28:55.357Z,1544
2017-07-09T07:29:55.706Z,1508
2017-07-09T07:30:55.099Z,1484
2017-07-09T07:31:55.447Z,1448
2017-07-09T07:32:55.481Z,1420
2017-07-09T07:33:56.201Z,1400
2017-07-09T07:34:56.178Z,1384
2017-07-09T07:35:55.891Z,1356
2017-07-09T07:36:55.919Z,1352
2017-07-09T07:37:55.634Z,1320
2017-07-09T07:38:55.675Z,1308
2017-07-09T07:39:55.691Z,1296
2017-07-09T07:40:56.047Z,1284
2017-07-09T07:41:55.756Z,1280
2017-07-09T07:42:56.105Z,1280
2017-07-09T07:43:56.137Z,1268
2017-07-09T07:44:55.856Z,1248
2017-07-09T07:45:56.199Z,1232
2017-07-09T07:46:56.544Z,1216
2017-07-09T07:47:56.572Z,1196
2017-07-09T07:48:55.972Z,1180
2017-07-09T07:49:56.003Z,1168
2017-07-09T07:50:56.352Z,1156
2017-07-09T07:51:56.393Z,1148
2017-07-09T07:52:56.409Z,1128
2017-07-09T07:53:56.442Z,1096
2017-07-09T07:54:56.807Z,1072
2017-07-09T07:55:56.188Z,1052
2017-07-09T07:56:56.540Z,1036
2017-07-09T07:57:56.241Z,1036
2017-07-09T07:58:56.594Z,1032
2017-07-09T07:59:56.951Z,1040
2017-07-09T08:00:56.680Z,1056
2017-07-09T08:01:56.705Z,1072
2017-07-09T08:02:56.721Z,1080
2017-07-09T08:03:56.434Z,1076
2017-07-09T08:04:56.458Z,1068
2017-07-09T08:05:56.495Z,1064
2017-07-09T08:06:56.204Z,1060
2017-07-09T08:07:56.237Z,1060
2017-07-09T08:08:57.154Z,1064
2017-07-09T08:09:57.256Z,1068
2017-07-09T08:10:56.647Z,1068
2017-07-09T08:11:57.011Z,1064
2017-07-09T08:12:56.389Z,1060
2017-07-09T08:13:57.038Z,1052
2017-07-09T08:14:56.771Z,1060
2017-07-09T08:15:56.804Z,1072
2017-07-09T08:16:57.146Z,1080
2017-07-09T08:17:57.182Z,1076
2017-07-09T08:18:56.827Z,1072
2017-07-09T08:19:57.244Z,1068
2017-07-09T08:20:57.285Z,1076
2017-07-09T08:21:57.305Z,1084
2017-07-09T08:22:57.628Z,1108
2017-07-09T08:23:57.610Z,1132
2017-07-09T08:24:57.396Z,1152
2017-07-09T08:25:57.428Z,1164
2017-07-09T08:26:57.449Z,1164
2017-07-09T08:27:57.491Z,1172
2017-07-09T08:28:57.495Z,1180
2017-07-09T08:29:57.873Z,1192
2017-07-09T08:30:57.577Z,1184
2017-07-09T08:31:57.621Z,1168
2017-07-09T08:32:57.646Z,1172
2017-07-09T08:33:58.241Z,1172
2017-07-09T08:34:57.388Z,1196
2017-07-09T08:35:57.745Z,1268
2017-07-09T08:36:58.100Z,1444
2017-07-09T08:37:57.807Z,1664
2017-07-09T08:38:58.478Z,1860
2017-07-09T08:39:58.185Z,2016
2017-07-09T08:40:57.565Z,2068
2017-07-09T08:41:58.244Z,1960
2017-07-09T08:42:57.308Z,2012
2017-07-09T08:43:58.615Z,2112
2017-07-09T08:44:58.341Z,2200
2017-07-09T08:45:58.366Z,2144
2017-07-09T08:46:58.084Z,1984
2017-07-09T08:47:58.414Z,1804
2017-07-09T08:48:58.385Z,1756
2017-07-09T08:49:58.493Z,1800
2017-07-09T08:50:57.572Z,1884
2017-07-09T08:51:58.231Z,1856
2017-07-09T08:52:58.259Z,1796
2017-07-09T08:53:58.872Z,1816
2017-07-09T08:54:58.330Z,1912
2017-07-09T08:55:58.371Z,2028
2017-07-09T08:56:58.377Z,2224
2017-07-09T08:57:58.408Z,2416
2017-07-09T08:58:58.388Z,2376
2017-07-09T08:59:58.482Z,2304
2017-07-09T09:00:58.518Z,2244
2017-07-09T09:01:58.534Z,2200
2017-07-09T09:02:58.258Z,2164
2017-07-09T09:03:57.964Z,2188
2017-07-09T09:04:58.965Z,2264
2017-07-09T09:05:58.974Z,2420
2017-07-09T09:06:58.707Z,2528
2017-07-09T09:07:58.730Z,2632
2017-07-09T09:08:58.437Z,2704
2017-07-09T09:09:58.788Z,2732
2017-07-09T09:10:58.847Z,2792
2017-07-09T09:11:58.835Z,2912
2017-07-09T09:12:58.564Z,2992
2017-07-09T09:13:58.913Z,3252
2017-07-09T09:14:58.650Z,3644
2017-07-09T09:15:58.650Z,3832
2017-07-09T09:16:58.683Z,4036
2017-07-09T09:17:59.035Z,3992
2017-07-09T09:18:59.376Z,3908
2017-07-09T09:19:58.842Z,3828
2017-07-09T09:20:58.815Z,3720
2017-07-09T09:21:58.524Z,3576
2017-07-09T09:22:59.180Z,3504
2017-07-09T09:23:59.217Z,3380
2017-07-09T09:24:59.266Z,3400
2017-07-09T09:25:59.611Z,3200
2017-07-09T09:26:59.004Z,3072
2017-07-09T09:27:59.338Z,3096
2017-07-09T09:28:59.382Z,3256
2017-07-09T09:29:59.443Z,3316
2017-07-09T09:30:59.443Z,3476
2017-07-09T09:31:59.465Z,3788
2017-07-09T09:32:59.825Z,4020
2017-07-09T09:33:59.201Z,4132
2017-07-09T09:34:59.882Z,4188
2017-07-09T09:35:59.972Z,4128
2017-07-09T09:36:59.309Z,4104
2017-07-09T09:37:59.657Z,3908
2017-07-09T09:39:00.010Z,3656
2017-07-09T09:39:59.094Z,3300
2017-07-09T09:40:59.743Z,3144
2017-07-09T09:41:59.797Z,2728
2017-07-09T09:43:00.130Z,2572
2017-07-09T09:43:59.850Z,2576
2017-07-09T09:45:00.182Z,2620
2017-07-09T09:45:59.908Z,2668
2017-07-09T09:47:00.257Z,2772
2017-07-09T09:47:59.649Z,2940
2017-07-09T09:48:59.998Z,3172
2017-07-09T09:50:00.279Z,3524
2017-07-09T09:51:00.446Z,4004
2017-07-09T09:52:00.102Z,2620
2017-07-09T09:52:59.806Z,4584
2017-07-09T09:53:59.829Z,4928
2017-07-09T09:55:00.752Z,5224
2017-07-09T09:56:00.225Z,5468
2017-07-09T09:56:59.934Z,5832
2017-07-09T09:57:59.962Z,6000
2017-07-09T09:59:00.321Z,6108
2017-07-09T10:00:00.294Z,6168
2017-07-09T10:01:00.386Z,6084
2017-07-09T10:02:00.085Z,6020
2017-07-09T10:03:00.444Z,5960
2017-07-09T10:04:00.475Z,5872
2017-07-09T10:05:00.752Z,5752
2017-07-09T10:06:00.531Z,5672
2017-07-09T10:07:00.572Z,5628
2017-07-09T10:08:00.604Z,5664
2017-07-09T10:09:00.939Z,5764
2017-07-09T10:10:00.951Z,5716
2017-07-09T10:11:01.001Z,5496
2017-07-09T10:12:00.719Z,5276
2017-07-09T10:13:00.755Z,5140
2017-07-09T10:14:00.469Z,5116
2017-07-09T10:15:01.064Z,4972
2017-07-09T10:16:00.213Z,4744
2017-07-09T10:17:01.194Z,4756
2017-07-09T10:18:00.272Z,5044
2017-07-09T10:19:30.424Z,5772
2017-07-09T10:20:01.444Z,5968
2017-07-09T10:21:01.323Z,6380
2017-07-09T10:22:01.031Z,6688
2017-07-09T10:23:01.383Z,6836
2017-07-09T10:24:00.781Z,6868
2017-07-09T10:25:01.749Z,6836
2017-07-09T10:26:01.154Z,6748
2017-07-09T10:27:01.187Z,6624
2017-07-09T10:28:01.218Z,6456
2017-07-09T10:29:01.257Z,6100
2017-07-09T10:30:01.279Z,6048
2017-07-09T10:31:01.314Z,5972
2017-07-09T10:32:01.679Z,6008
2017-07-09T10:33:01.057Z,6220
2017-07-09T10:34:01.723Z,6428
2017-07-09T10:35:01.439Z,6560
2017-07-09T10:36:01.475Z,6568
2017-07-09T10:37:01.184Z,6524
2017-07-09T10:38:01.845Z,6372
2017-07-09T10:39:01.581Z,6248
2017-07-09T10:40:01.595Z,6144
2017-07-09T10:41:01.958Z,5948
2017-07-09T10:42:01.338Z,5740
2017-07-09T10:43:01.709Z,5536
2017-07-09T10:44:01.727Z,5324
2017-07-09T10:45:01.767Z,5244
2017-07-09T10:46:02.047Z,5220
2017-07-09T10:47:01.810Z,5252
2017-07-09T10:48:01.869Z,5276
2017-07-09T10:49:01.877Z,5276
2017-07-09T10:50:01.906Z,5332
2017-07-09T10:51:01.881Z,5520
2017-07-09T10:52:01.968Z,5916
2017-07-09T10:53:01.681Z,6368
2017-07-09T10:54:02.354Z,6716
2017-07-09T10:55:02.379Z,6892
2017-07-09T10:56:02.059Z,7036
2017-07-09T10:57:02.137Z,7380
2017-07-09T10:58:01.837Z,7260
2017-07-09T10:59:02.198Z,7352
2017-07-09T11:00:02.227Z,7140
2017-07-09T11:01:02.240Z,7404
2017-07-09T11:02:02.362Z,7664
2017-07-09T11:03:02.638Z,7112
2017-07-09T11:04:02.355Z,7124
2017-07-09T11:05:02.691Z,7052
2017-07-09T11:06:03.008Z,6828
2017-07-09T11:07:02.465Z,6524
2017-07-09T11:08:02.163Z,6064
2017-07-09T11:09:02.832Z,5768
2017-07-09T11:10:02.881Z,5652
2017-07-09T11:11:02.839Z,5328
2017-07-09T11:12:02.613Z,5044
2017-07-09T11:13:02.643Z,4660
2017-07-09T11:14:03.014Z,4272
2017-07-09T11:15:02.706Z,3988
2017-07-09T11:16:03.305Z,3804
2017-07-09T11:17:03.118Z,3724
2017-07-09T11:18:02.474Z,3696
2017-07-09T11:19:02.195Z,3688
2017-07-09T11:20:02.870Z,3752
2017-07-09T11:21:03.147Z,3916
2017-07-09T11:22:03.239Z,4120
2017-07-09T11:23:02.655Z,4348
2017-07-09T11:24:03.295Z,4568
2017-07-09T11:25:03.026Z,4680
2017-07-09T11:26:03.312Z,4752
2017-07-09T11:27:03.085Z,4720
2017-07-09T11:28:03.438Z,4620
2017-07-09T11:29:03.148Z,4592
2017-07-09T11:30:02.867Z,4652
2017-07-09T11:31:03.509Z,4800
2017-07-09T11:32:03.266Z,5040
2017-07-09T11:33:02.643Z,5196
2017-07-09T11:34:03.005Z,5332
2017-07-09T11:35:03.337Z,5308
2017-07-09T11:36:03.992Z,5100
2017-07-09T11:37:03.406Z,4832
2017-07-09T11:38:03.119Z,4480
2017-07-09T11:39:03.471Z,4244
2017-07-09T11:40:02.878Z,4064
2017-07-09T11:41:03.504Z,4148
2017-07-09T11:42:03.913Z,4344
2017-07-09T11:43:03.598Z,4616
2017-07-09T11:44:03.632Z,4892
2017-07-09T11:45:03.655Z,5136
2017-07-09T11:46:03.629Z,5316
2017-07-09T11:47:03.744Z,5356
2017-07-09T11:48:03.436Z,5276
2017-07-09T11:49:04.117Z,5184
2017-07-09T11:50:03.496Z,5144
2017-07-09T11:51:03.814Z,5148
2017-07-09T11:52:04.213Z,5148
2017-07-09T11:53:03.912Z,4908
2017-07-09T11:54:03.952Z,4836
2017-07-09T11:55:03.982Z,4936
2017-07-09T11:56:04.274Z,4904
2017-07-09T11:57:03.715Z,4672
2017-07-09T11:58:03.756Z,4616
2017-07-09T11:59:04.101Z,4632
2017-07-09T12:00:04.139Z,4608
2017-07-09T12:01:04.098Z,4800
2017-07-09T12:02:04.523Z,4680
2017-07-09T12:03:04.236Z,5036
2017-07-09T12:04:04.573Z,5376
2017-07-09T12:05:04.278Z,6208
2017-07-09T12:06:04.900Z,10204
2017-07-09T12:07:04.678Z,7136
2017-07-09T12:08:04.400Z,16648
2017-07-09T12:09:04.101Z,8172
2017-07-09T12:10:04.138Z,10760
2017-07-09T12:11:04.738Z,7644
2017-07-09T12:12:04.202Z,9252
2017-07-09T12:13:04.229Z,8376
2017-07-09T12:14:04.589Z,8520
2017-07-09T12:15:04.294Z,8316
2017-07-09T12:16:05.219Z,8120
2017-07-09T12:17:04.370Z,9652
2017-07-09T12:18:04.709Z,9040
2017-07-09T12:19:04.737Z,12228
2017-07-09T12:20:04.770Z,11616
2017-07-09T12:21:05.071Z,12760
2017-07-09T12:22:05.165Z,11724
2017-07-09T12:23:04.869Z,23904
2017-07-09T12:24:04.594Z,30464
2017-07-09T12:25:04.328Z,17872
2017-07-09T12:26:04.892Z,11640
2017-07-09T12:27:04.361Z,12344
2017-07-09T12:28:05.036Z,27424
2017-07-09T12:29:05.378Z,25760
2017-07-09T12:30:04.787Z,8348
2017-07-09T12:31:05.063Z,7932
2017-07-09T12:32:05.501Z,7792
2017-07-09T12:33:04.873Z,9784
2017-07-09T12:34:05.235Z,11092
2017-07-09T12:35:05.587Z,16624
2017-07-09T12:36:05.224Z,26304
2017-07-09T12:37:05.319Z,52960
2017-07-09T12:38:05.362Z,42368
2017-07-09T12:39:05.395Z,51808
2017-07-09T12:40:05.102Z,48480
2017-07-09T12:41:05.732Z,14452
2017-07-09T12:42:05.847Z,31392
2017-07-09T12:43:05.838Z,24512
2017-07-09T12:44:05.542Z,24352
2017-07-09T12:45:05.899Z,25216
2017-07-09T12:46:05.299Z,10168
2017-07-09T12:47:05.642Z,7608
2017-07-09T12:48:05.686Z,10100
2017-07-09T12:49:05.707Z,7408
2017-07-09T12:50:05.749Z,5472
2017-07-09T12:51:06.174Z,4584
2017-07-09T12:52:05.494Z,3808
2017-07-09T12:53:05.850Z,3396
2017-07-09T12:54:05.879Z,3560
2017-07-09T12:55:05.909Z,3932
2017-07-09T12:56:05.941Z,10080
2017-07-09T12:57:06.015Z,5000
2017-07-09T12:58:06.014Z,4876
2017-07-09T12:59:06.360Z,5640
2017-07-09T13:00:06.069Z,8880
2017-07-09T13:01:06.114Z,19776
2017-07-09T13:02:05.819Z,22592
2017-07-09T13:03:06.178Z,7124
2017-07-09T13:04:06.518Z,17392
2017-07-09T13:05:06.570Z,6860
2017-07-09T13:06:06.602Z,6452
2017-07-09T13:07:06.306Z,25632
2017-07-09T13:08:06.649Z,4992
2017-07-09T13:09:06.377Z,4732
2017-07-09T13:10:06.405Z,4248
2017-07-09T13:11:06.435Z,4980
2017-07-09T13:12:06.154Z,8564
2017-07-09T13:13:06.507Z,5880
2017-07-09T13:14:06.549Z,5328
2017-07-09T13:15:06.573Z,7592
2017-07-09T13:16:06.294Z,4792
2017-07-09T13:17:06.299Z,4908
2017-07-09T13:18:06.032Z,5524
2017-07-09T13:19:06.056Z,6948
2017-07-09T13:20:06.743Z,8368
2017-07-09T13:21:06.441Z,7524
2017-07-09T13:22:06.480Z,6612
2017-07-09T13:23:06.820Z,6904
2017-07-09T13:24:07.268Z,6908
2017-07-09T13:25:06.878Z,7976
2017-07-09T13:26:06.946Z,16504
2017-07-09T13:27:06.701Z,20768
2017-07-09T13:28:06.984Z,28704
2017-07-09T13:29:06.698Z,64064
2017-07-09T13:30:07.354Z,17300
2017-07-09T13:31:07.091Z,18280
2017-07-09T13:32:07.060Z,60544
2017-07-09T13:33:06.517Z,41312
2017-07-09T13:34:06.868Z,57856
2017-07-09T13:35:07.213Z,24864
2017-07-09T13:36:07.239Z,14100
2017-07-09T13:37:07.863Z,15256
2017-07-09T13:38:06.716Z,67456
2017-07-09T13:39:07.674Z,68096
2017-07-09T13:40:07.390Z,66944
2017-07-09T13:41:07.093Z,66336
2017-07-09T13:42:08.042Z,59776
2017-07-09T13:43:07.809Z,60384
2017-07-09T13:44:07.522Z,62432